LAN349 SCFA-SCEL
Flight info
| Callsign | LAN349 |
|---|---|
| Flight time | 1h 27m |
| Altitude | 37000 |
| Route | UKATO3A UKATO UQ803 SIMOK SIMOK7B |
| Aircraft | A320/M-SDE3FGHIRWY/LB1 |
Departure
| Time | 2026-04-20 01:57 |
|---|---|
| Airport | Andrés Sabella Gálvez International Airport (SCFA) |
Arrival
| Time | 2026-04-20 03:25 |
|---|---|
| Airport | Comodoro Arturo Merino Benítez International Airport (SCEL) |
| Time | Latitude | Longitude | Altitude | Speed | Heading |
|---|---|---|---|---|---|
| 2026-04-20 01:43 | -23.44827 | -70.44178 | 460 ft | 0 kts | 97° |
| 2026-04-20 01:49 | -23.44827 | -70.44179 | 460 ft | 2 kts | 97° |
| 2026-04-20 01:49 | -23.44826 | -70.44197 | 459 ft | 2 kts | 91° |
| 2026-04-20 01:49 | -23.44826 | -70.44215 | 458 ft | 2 kts | 82° |
| 2026-04-20 01:49 | -23.44830 | -70.44233 | 461 ft | 2 kts | 68° |
| 2026-04-20 01:50 | -23.44838 | -70.44248 | 459 ft | 2 kts | 44° |
| 2026-04-20 01:50 | -23.44851 | -70.44258 | 460 ft | 2 kts | 18° |
| 2026-04-20 01:50 | -23.44862 | -70.44262 | 459 ft | 1 kts | 8° |
| 2026-04-20 01:50 | -23.44863 | -70.44262 | 459 ft | 0 kts | 8° |
| 2026-04-20 01:53 | -23.44827 | -70.44261 | 462 ft | 11 kts | 351° |
| 2026-04-20 01:53 | -23.44746 | -70.44287 | 462 ft | 12 kts | 340° |
| 2026-04-20 01:53 | -23.44673 | -70.44311 | 462 ft | 10 kts | 348° |
| 2026-04-20 01:54 | -23.44606 | -70.44328 | 462 ft | 12 kts | 353° |
| 2026-04-20 01:54 | -23.44500 | -70.44324 | 462 ft | 18 kts | 4° |
| 2026-04-20 01:54 | -23.44357 | -70.44307 | 462 ft | 23 kts | 6° |
| 2026-04-20 01:54 | -23.44183 | -70.44285 | 462 ft | 26 kts | 9° |
| 2026-04-20 01:55 | -23.43998 | -70.44263 | 462 ft | 27 kts | 4° |
| 2026-04-20 01:55 | -23.43831 | -70.44243 | 461 ft | 21 kts | 7° |
| 2026-04-20 01:55 | -23.43680 | -70.44225 | 462 ft | 23 kts | 6° |
| 2026-04-20 01:55 | -23.43519 | -70.44205 | 462 ft | 24 kts | 6° |
| 2026-04-20 01:56 | -23.43364 | -70.44199 | 462 ft | 20 kts | 329° |
| 2026-04-20 01:56 | -23.43276 | -70.44275 | 462 ft | 16 kts | 311° |
| 2026-04-20 01:56 | -23.43268 | -70.44348 | 462 ft | 9 kts | 250° |
| 2026-04-20 01:56 | -23.43339 | -70.44379 | 460 ft | 17 kts | 187° |
| 2026-04-20 01:57 | -23.43696 | -70.44422 | 463 ft | 90 kts | 187° |
| 2026-04-20 01:57 | -23.44543 | -70.44523 | 461 ft | 152 kts | 186° |
| 2026-04-20 01:57 | -23.45688 | -70.44671 | 819 ft | 174 kts | 187° |
| 2026-04-20 01:57 | -23.46939 | -70.44803 | 1450 ft | 184 kts | 179° |
| 2026-04-20 01:58 | -23.48176 | -70.44636 | 2317 ft | 175 kts | 167° |
| 2026-04-20 01:58 | -23.49366 | -70.44385 | 2965 ft | 175 kts | 169° |
| 2026-04-20 01:58 | -23.50582 | -70.44173 | 3517 ft | 180 kts | 169° |
| 2026-04-20 01:58 | -23.51860 | -70.43899 | 3905 ft | 195 kts | 167° |
| 2026-04-20 01:59 | -23.53219 | -70.43581 | 4265 ft | 210 kts | 167° |
| 2026-04-20 01:59 | -23.54715 | -70.43243 | 4612 ft | 230 kts | 168° |
| 2026-04-20 01:59 | -23.56345 | -70.42896 | 5041 ft | 247 kts | 169° |
| 2026-04-20 01:59 | -23.58088 | -70.42543 | 5493 ft | 264 kts | 169° |
| 2026-04-20 02:00 | -23.59950 | -70.42177 | 5970 ft | 280 kts | 170° |
| 2026-04-20 02:00 | -23.61905 | -70.41801 | 6609 ft | 289 kts | 170° |
| 2026-04-20 02:00 | -23.63900 | -70.41424 | 7312 ft | 294 kts | 170° |
| 2026-04-20 02:00 | -23.65935 | -70.41044 | 8009 ft | 298 kts | 170° |
| 2026-04-20 02:01 | -23.67993 | -70.40662 | 8717 ft | 303 kts | 170° |
| 2026-04-20 02:01 | -23.70093 | -70.40268 | 9416 ft | 308 kts | 170° |
| 2026-04-20 02:01 | -23.72225 | -70.39866 | 10087 ft | 314 kts | 170° |
| 2026-04-20 02:01 | -23.74426 | -70.39451 | 10476 ft | 329 kts | 170° |
| 2026-04-20 02:02 | -23.76742 | -70.39013 | 10794 ft | 346 kts | 171° |
| 2026-04-20 02:02 | -23.79166 | -70.38563 | 11170 ft | 359 kts | 173° |
| 2026-04-20 02:02 | -23.81672 | -70.38397 | 11772 ft | 363 kts | 179° |
| 2026-04-20 02:02 | -23.84206 | -70.38318 | 12446 ft | 366 kts | 179° |
| 2026-04-20 02:03 | -23.85893 | -70.38262 | 12896 ft | 368 kts | 180° |
| 2026-04-20 02:03 | -23.88462 | -70.38176 | 13559 ft | 371 kts | 180° |
| 2026-04-20 02:03 | -23.91935 | -70.38060 | 14375 ft | 375 kts | 180° |
| 2026-04-20 02:03 | -23.93666 | -70.38003 | 14773 ft | 377 kts | 180° |
| 2026-04-20 02:04 | -23.96294 | -70.37918 | 15381 ft | 379 kts | 181° |
| 2026-04-20 02:04 | -23.98934 | -70.37832 | 15991 ft | 381 kts | 181° |
| 2026-04-20 02:04 | -24.01585 | -70.37744 | 16615 ft | 382 kts | 181° |
| 2026-04-20 02:04 | -24.04252 | -70.37656 | 17222 ft | 384 kts | 182° |
| 2026-04-20 02:05 | -24.06937 | -70.37567 | 17830 ft | 386 kts | 182° |
| 2026-04-20 02:05 | -24.09628 | -70.37478 | 18419 ft | 388 kts | 182° |
| 2026-04-20 02:05 | -24.12337 | -70.37391 | 18886 ft | 392 kts | 182° |
| 2026-04-20 02:05 | -24.15078 | -70.37306 | 19324 ft | 396 kts | 182° |
| 2026-04-20 02:06 | -24.17845 | -70.37217 | 19757 ft | 400 kts | 182° |
| 2026-04-20 02:06 | -24.20639 | -70.37125 | 20186 ft | 404 kts | 182° |
| 2026-04-20 02:06 | -24.23464 | -70.37030 | 20641 ft | 408 kts | 182° |
| 2026-04-20 02:06 | -24.26316 | -70.36931 | 21091 ft | 412 kts | 182° |
| 2026-04-20 02:07 | -24.29203 | -70.36830 | 21547 ft | 417 kts | 182° |
| 2026-04-20 02:07 | -24.32112 | -70.36730 | 22003 ft | 421 kts | 182° |
| 2026-04-20 02:07 | -24.35056 | -70.36630 | 22463 ft | 425 kts | 182° |
| 2026-04-20 02:07 | -24.38027 | -70.36529 | 22908 ft | 429 kts | 182° |
| 2026-04-20 02:08 | -24.41025 | -70.36426 | 23359 ft | 433 kts | 182° |
| 2026-04-20 02:08 | -24.44056 | -70.36322 | 23774 ft | 437 kts | 182° |
| 2026-04-20 02:08 | -24.47098 | -70.36219 | 24159 ft | 440 kts | 182° |
| 2026-04-20 02:08 | -24.50132 | -70.36117 | 24543 ft | 442 kts | 182° |
| 2026-04-20 02:09 | -24.53222 | -70.36012 | 24927 ft | 444 kts | 182° |
| 2026-04-20 02:09 | -24.56320 | -70.35907 | 25283 ft | 446 kts | 182° |
| 2026-04-20 02:09 | -24.59441 | -70.35803 | 25635 ft | 449 kts | 182° |
| 2026-04-20 02:09 | -24.62566 | -70.35701 | 25995 ft | 450 kts | 182° |
| 2026-04-20 02:10 | -24.65711 | -70.35599 | 26327 ft | 453 kts | 182° |
| 2026-04-20 02:10 | -24.68861 | -70.35498 | 26661 ft | 455 kts | 183° |
| 2026-04-20 02:10 | -24.72029 | -70.35396 | 27002 ft | 457 kts | 183° |
| 2026-04-20 02:10 | -24.75220 | -70.35292 | 27344 ft | 459 kts | 183° |
| 2026-04-20 02:11 | -24.78410 | -70.35184 | 27674 ft | 460 kts | 183° |
| 2026-04-20 02:11 | -24.81622 | -70.35072 | 27999 ft | 462 kts | 182° |
| 2026-04-20 02:11 | -24.84843 | -70.34958 | 28326 ft | 464 kts | 183° |
| 2026-04-20 02:11 | -24.88081 | -70.34848 | 28636 ft | 466 kts | 183° |
| 2026-04-20 02:12 | -24.91330 | -70.34743 | 28952 ft | 468 kts | 183° |
| 2026-04-20 02:12 | -24.94594 | -70.34639 | 29251 ft | 470 kts | 183° |
| 2026-04-20 02:12 | -24.97824 | -70.34532 | 29553 ft | 471 kts | 183° |
| 2026-04-20 02:12 | -25.01107 | -70.34420 | 29843 ft | 473 kts | 183° |
| 2026-04-20 02:13 | -25.04402 | -70.34307 | 30122 ft | 474 kts | 183° |
| 2026-04-20 02:13 | -25.07704 | -70.34193 | 30352 ft | 476 kts | 183° |
| 2026-04-20 02:13 | -25.11023 | -70.34078 | 30567 ft | 478 kts | 183° |
| 2026-04-20 02:13 | -25.14351 | -70.33963 | 30775 ft | 480 kts | 183° |
| 2026-04-20 02:14 | -25.17695 | -70.33846 | 30964 ft | 481 kts | 183° |
| 2026-04-20 02:14 | -25.21050 | -70.33734 | 31147 ft | 483 kts | 184° |
| 2026-04-20 02:14 | -25.24415 | -70.33624 | 31401 ft | 483 kts | 184° |
| 2026-04-20 02:14 | -25.27773 | -70.33514 | 31659 ft | 482 kts | 184° |
| 2026-04-20 02:15 | -25.31122 | -70.33402 | 31936 ft | 482 kts | 184° |
| 2026-04-20 02:15 | -25.34481 | -70.33290 | 32206 ft | 482 kts | 184° |
| 2026-04-20 02:15 | -25.37834 | -70.33174 | 32462 ft | 482 kts | 184° |
| 2026-04-20 02:15 | -25.41188 | -70.33057 | 32695 ft | 482 kts | 184° |
| 2026-04-20 02:16 | -25.44538 | -70.32943 | 32931 ft | 482 kts | 184° |
| 2026-04-20 02:16 | -25.47894 | -70.32830 | 33190 ft | 482 kts | 184° |
| 2026-04-20 02:16 | -25.51245 | -70.32719 | 33464 ft | 482 kts | 185° |
| 2026-04-20 02:16 | -25.54604 | -70.32609 | 33725 ft | 482 kts | 185° |
| 2026-04-20 02:17 | -25.57962 | -70.32498 | 33980 ft | 483 kts | 185° |
| 2026-04-20 02:17 | -25.61319 | -70.32385 | 34207 ft | 483 kts | 185° |
| 2026-04-20 02:17 | -25.64673 | -70.32270 | 34426 ft | 483 kts | 185° |
| 2026-04-20 02:17 | -25.68031 | -70.32153 | 34652 ft | 483 kts | 185° |
| 2026-04-20 02:18 | -25.71390 | -70.32034 | 34869 ft | 482 kts | 185° |
| 2026-04-20 02:18 | -25.74741 | -70.31917 | 35082 ft | 482 kts | 185° |
| 2026-04-20 02:18 | -25.78096 | -70.31804 | 35273 ft | 482 kts | 185° |
| 2026-04-20 02:18 | -25.81399 | -70.31695 | 35471 ft | 481 kts | 186° |
| 2026-04-20 02:19 | -25.84744 | -70.31584 | 35642 ft | 481 kts | 186° |
| 2026-04-20 02:19 | -25.88089 | -70.31470 | 35831 ft | 481 kts | 186° |
| 2026-04-20 02:19 | -25.91439 | -70.31352 | 36000 ft | 481 kts | 186° |
| 2026-04-20 02:19 | -25.94790 | -70.31234 | 36179 ft | 481 kts | 186° |
| 2026-04-20 02:20 | -25.98136 | -70.31120 | 36340 ft | 481 kts | 186° |
| 2026-04-20 02:20 | -26.01476 | -70.31008 | 36514 ft | 481 kts | 186° |
| 2026-04-20 02:20 | -26.04820 | -70.30898 | 36658 ft | 480 kts | 186° |
| 2026-04-20 02:20 | -26.08135 | -70.30951 | 36796 ft | 472 kts | 194° |
| 2026-04-20 02:21 | -26.14678 | -70.31563 | 37053 ft | 470 kts | 193° |
| 2026-04-20 02:21 | -26.17937 | -70.31857 | 37064 ft | 469 kts | 193° |
| 2026-04-20 02:22 | -26.24447 | -70.32448 | 37063 ft | 469 kts | 193° |
| 2026-04-20 02:22 | -26.30955 | -70.33046 | 37060 ft | 470 kts | 193° |
| 2026-04-20 02:23 | -26.37477 | -70.33651 | 37056 ft | 470 kts | 193° |
| 2026-04-20 02:23 | -26.43995 | -70.34251 | 37077 ft | 470 kts | 193° |
| 2026-04-20 02:24 | -26.50476 | -70.34848 | 37072 ft | 471 kts | 193° |
| 2026-04-20 02:24 | -26.56998 | -70.35454 | 37078 ft | 470 kts | 193° |
| 2026-04-20 02:25 | -26.63526 | -70.36058 | 37098 ft | 469 kts | 193° |
| 2026-04-20 02:25 | -26.70028 | -70.36658 | 37065 ft | 470 kts | 194° |
| 2026-04-20 02:26 | -26.76554 | -70.37264 | 37080 ft | 469 kts | 194° |
| 2026-04-20 02:26 | -26.83061 | -70.37865 | 37081 ft | 469 kts | 193° |
| 2026-04-20 02:27 | -26.89584 | -70.38469 | 37076 ft | 470 kts | 194° |
| 2026-04-20 02:27 | -26.96109 | -70.39077 | 37080 ft | 470 kts | 193° |
| 2026-04-20 02:28 | -27.02629 | -70.39680 | 37084 ft | 470 kts | 194° |
| 2026-04-20 02:28 | -27.09152 | -70.40289 | 37085 ft | 470 kts | 194° |
| 2026-04-20 02:29 | -27.15668 | -70.40902 | 37085 ft | 470 kts | 194° |
| 2026-04-20 02:29 | -27.22186 | -70.41512 | 37091 ft | 470 kts | 194° |
| 2026-04-20 02:30 | -27.28659 | -70.42110 | 37087 ft | 470 kts | 194° |
| 2026-04-20 02:30 | -27.35174 | -70.42722 | 37087 ft | 470 kts | 194° |
| 2026-04-20 02:31 | -27.41684 | -70.43337 | 37087 ft | 469 kts | 194° |
| 2026-04-20 02:31 | -27.48192 | -70.43946 | 37091 ft | 469 kts | 194° |
| 2026-04-20 02:32 | -27.54697 | -70.44561 | 37088 ft | 469 kts | 194° |
| 2026-04-20 02:32 | -27.61198 | -70.45175 | 37090 ft | 469 kts | 193° |
| 2026-04-20 02:33 | -27.67704 | -70.45791 | 37089 ft | 469 kts | 193° |
| 2026-04-20 02:33 | -27.74201 | -70.46401 | 37095 ft | 468 kts | 193° |
| 2026-04-20 02:34 | -27.80690 | -70.47014 | 37097 ft | 468 kts | 193° |
| 2026-04-20 02:34 | -27.87171 | -70.47633 | 37097 ft | 467 kts | 193° |
| 2026-04-20 02:35 | -27.93649 | -70.48242 | 37100 ft | 467 kts | 193° |
| 2026-04-20 02:35 | -28.00125 | -70.48848 | 37095 ft | 467 kts | 193° |
| 2026-04-20 02:36 | -28.06559 | -70.49463 | 37096 ft | 466 kts | 193° |
| 2026-04-20 02:36 | -28.13020 | -70.50083 | 37100 ft | 466 kts | 193° |
| 2026-04-20 02:37 | -28.19484 | -70.50696 | 37092 ft | 466 kts | 193° |
| 2026-04-20 02:37 | -28.25942 | -70.51315 | 37094 ft | 466 kts | 193° |
| 2026-04-20 02:38 | -28.32400 | -70.51932 | 37098 ft | 465 kts | 193° |
| 2026-04-20 02:38 | -28.38842 | -70.52545 | 37102 ft | 465 kts | 193° |
| 2026-04-20 02:39 | -28.45285 | -70.53160 | 37102 ft | 464 kts | 193° |
| 2026-04-20 02:39 | -28.51718 | -70.53778 | 37095 ft | 464 kts | 193° |
| 2026-04-20 02:40 | -28.58159 | -70.54384 | 37095 ft | 464 kts | 193° |
| 2026-04-20 02:40 | -28.64592 | -70.54975 | 37099 ft | 463 kts | 193° |
| 2026-04-20 02:41 | -28.71019 | -70.55568 | 37095 ft | 463 kts | 193° |
| 2026-04-20 02:41 | -28.77444 | -70.56174 | 37096 ft | 463 kts | 193° |
| 2026-04-20 02:42 | -28.83851 | -70.56785 | 37105 ft | 461 kts | 192° |
| 2026-04-20 02:42 | -28.90257 | -70.57385 | 37106 ft | 462 kts | 192° |
| 2026-04-20 02:43 | -28.96666 | -70.57991 | 37090 ft | 463 kts | 193° |
| 2026-04-20 02:43 | -29.03084 | -70.58613 | 37097 ft | 463 kts | 192° |
| 2026-04-20 02:44 | -29.09452 | -70.59227 | 37115 ft | 461 kts | 192° |
| 2026-04-20 02:44 | -29.15839 | -70.59841 | 37125 ft | 460 kts | 193° |
| 2026-04-20 02:45 | -29.22220 | -70.60463 | 37120 ft | 460 kts | 193° |
| 2026-04-20 02:45 | -29.28592 | -70.61088 | 37129 ft | 460 kts | 193° |
| 2026-04-20 02:46 | -29.34971 | -70.61713 | 37128 ft | 459 kts | 193° |
| 2026-04-20 02:46 | -29.41334 | -70.62330 | 37142 ft | 458 kts | 193° |
| 2026-04-20 02:47 | -29.47698 | -70.62944 | 37128 ft | 460 kts | 193° |
| 2026-04-20 02:47 | -29.54073 | -70.63565 | 37127 ft | 459 kts | 193° |
| 2026-04-20 02:48 | -29.60439 | -70.64184 | 37127 ft | 459 kts | 193° |
| 2026-04-20 02:48 | -29.66813 | -70.64810 | 37117 ft | 460 kts | 193° |
| 2026-04-20 02:49 | -29.73189 | -70.65429 | 37127 ft | 459 kts | 193° |
| 2026-04-20 02:49 | -29.79553 | -70.66049 | 37122 ft | 458 kts | 193° |
| 2026-04-20 02:50 | -29.85915 | -70.66683 | 37119 ft | 459 kts | 193° |
| 2026-04-20 02:50 | -29.92285 | -70.67311 | 37114 ft | 460 kts | 193° |
| 2026-04-20 02:51 | -29.98657 | -70.67937 | 37112 ft | 460 kts | 193° |
| 2026-04-20 02:51 | -30.04995 | -70.68560 | 37114 ft | 460 kts | 193° |
| 2026-04-20 02:52 | -30.11364 | -70.69187 | 37112 ft | 460 kts | 193° |
| 2026-04-20 02:52 | -30.17740 | -70.69823 | 37113 ft | 460 kts | 193° |
| 2026-04-20 02:53 | -30.24112 | -70.70449 | 37113 ft | 460 kts | 193° |
| 2026-04-20 02:53 | -30.29404 | -70.70966 | 37115 ft | 460 kts | 193° |
| 2026-04-20 02:54 | -30.35789 | -70.71597 | 37106 ft | 461 kts | 194° |
| 2026-04-20 02:54 | -30.42174 | -70.72237 | 37111 ft | 461 kts | 194° |
| 2026-04-20 02:55 | -30.48574 | -70.72880 | 37116 ft | 461 kts | 194° |
| 2026-04-20 02:55 | -30.54967 | -70.73535 | 37097 ft | 463 kts | 193° |
| 2026-04-20 02:56 | -30.61377 | -70.74168 | 37106 ft | 462 kts | 193° |
| 2026-04-20 02:56 | -30.67774 | -70.74777 | 37122 ft | 461 kts | 193° |
| 2026-04-20 02:57 | -30.74124 | -70.75384 | 37092 ft | 458 kts | 194° |
| 2026-04-20 02:57 | -30.80502 | -70.76007 | 37091 ft | 461 kts | 194° |
| 2026-04-20 02:58 | -30.86898 | -70.76631 | 37090 ft | 461 kts | 194° |
| 2026-04-20 02:58 | -30.93250 | -70.77253 | 37094 ft | 462 kts | 194° |
| 2026-04-20 02:59 | -30.99669 | -70.77878 | 37106 ft | 463 kts | 194° |
| 2026-04-20 02:59 | -31.06062 | -70.78494 | 37114 ft | 461 kts | 194° |
| 2026-04-20 03:00 | -31.12471 | -70.79121 | 37105 ft | 463 kts | 194° |
| 2026-04-20 03:00 | -31.18896 | -70.79749 | 37111 ft | 464 kts | 194° |
| 2026-04-20 03:01 | -31.25348 | -70.80378 | 37108 ft | 467 kts | 194° |
| 2026-04-20 03:01 | -31.28592 | -70.80696 | 36988 ft | 469 kts | 194° |
| 2026-04-20 03:01 | -31.31862 | -70.81019 | 36148 ft | 473 kts | 194° |
| 2026-04-20 03:01 | -31.35161 | -70.81348 | 35208 ft | 478 kts | 194° |
| 2026-04-20 03:02 | -31.38469 | -70.81672 | 34316 ft | 473 kts | 194° |
| 2026-04-20 03:02 | -31.41689 | -70.81973 | 33888 ft | 456 kts | 194° |
| 2026-04-20 03:02 | -31.44803 | -70.82261 | 33380 ft | 444 kts | 195° |
| 2026-04-20 03:02 | -31.47877 | -70.82559 | 32880 ft | 443 kts | 195° |
| 2026-04-20 03:03 | -31.50909 | -70.82870 | 32395 ft | 442 kts | 195° |
| 2026-04-20 03:03 | -31.53968 | -70.83189 | 31909 ft | 440 kts | 195° |
| 2026-04-20 03:03 | -31.57001 | -70.83498 | 31414 ft | 437 kts | 195° |
| 2026-04-20 03:03 | -31.60021 | -70.83800 | 30962 ft | 434 kts | 195° |
| 2026-04-20 03:04 | -31.63015 | -70.84095 | 30501 ft | 430 kts | 195° |
| 2026-04-20 03:04 | -31.65978 | -70.84388 | 30032 ft | 427 kts | 195° |
| 2026-04-20 03:04 | -31.68919 | -70.84677 | 29576 ft | 422 kts | 195° |
| 2026-04-20 03:04 | -31.71846 | -70.84963 | 29135 ft | 415 kts | 195° |
| 2026-04-20 03:05 | -31.74714 | -70.85234 | 28712 ft | 413 kts | 193° |
| 2026-04-20 03:05 | -31.77612 | -70.85223 | 28283 ft | 416 kts | 188° |
| 2026-04-20 03:05 | -31.80485 | -70.85124 | 27863 ft | 412 kts | 187° |
| 2026-04-20 03:05 | -31.83340 | -70.85015 | 27451 ft | 408 kts | 187° |
| 2026-04-20 03:06 | -31.86130 | -70.84905 | 27033 ft | 404 kts | 187° |
| 2026-04-20 03:06 | -31.88927 | -70.84801 | 26625 ft | 400 kts | 187° |
| 2026-04-20 03:06 | -31.91699 | -70.84700 | 26197 ft | 397 kts | 188° |
| 2026-04-20 03:06 | -31.94449 | -70.84602 | 25770 ft | 394 kts | 187° |
| 2026-04-20 03:07 | -31.97182 | -70.84510 | 25334 ft | 392 kts | 187° |
| 2026-04-20 03:07 | -31.99901 | -70.84418 | 24901 ft | 391 kts | 187° |
| 2026-04-20 03:07 | -32.02611 | -70.84327 | 24454 ft | 390 kts | 187° |
| 2026-04-20 03:07 | -32.05319 | -70.84232 | 24002 ft | 388 kts | 187° |
| 2026-04-20 03:08 | -32.08005 | -70.84133 | 23541 ft | 385 kts | 186° |
| 2026-04-20 03:08 | -32.10672 | -70.84035 | 23063 ft | 381 kts | 187° |
| 2026-04-20 03:08 | -32.13308 | -70.83936 | 22629 ft | 377 kts | 186° |
| 2026-04-20 03:08 | -32.15924 | -70.83841 | 22200 ft | 374 kts | 186° |
| 2026-04-20 03:09 | -32.18509 | -70.83745 | 21780 ft | 369 kts | 186° |
| 2026-04-20 03:09 | -32.21060 | -70.83654 | 21386 ft | 366 kts | 186° |
| 2026-04-20 03:09 | -32.23601 | -70.83566 | 20970 ft | 364 kts | 186° |
| 2026-04-20 03:09 | -32.26128 | -70.83478 | 20559 ft | 362 kts | 185° |
| 2026-04-20 03:10 | -32.28646 | -70.83393 | 20154 ft | 362 kts | 185° |
| 2026-04-20 03:10 | -32.31157 | -70.83306 | 19770 ft | 360 kts | 185° |
| 2026-04-20 03:10 | -32.33657 | -70.83216 | 19370 ft | 359 kts | 185° |
| 2026-04-20 03:10 | -32.36149 | -70.83125 | 18971 ft | 357 kts | 184° |
| 2026-04-20 03:11 | -32.38599 | -70.83036 | 18588 ft | 357 kts | 184° |
| 2026-04-20 03:11 | -32.41079 | -70.82950 | 18172 ft | 357 kts | 184° |
| 2026-04-20 03:11 | -32.43562 | -70.82864 | 17765 ft | 356 kts | 184° |
| 2026-04-20 03:11 | -32.46040 | -70.82778 | 17388 ft | 355 kts | 183° |
| 2026-04-20 03:12 | -32.48499 | -70.82690 | 16991 ft | 351 kts | 183° |
| 2026-04-20 03:12 | -32.50928 | -70.82603 | 16621 ft | 347 kts | 183° |
| 2026-04-20 03:12 | -32.53323 | -70.82514 | 16253 ft | 341 kts | 183° |
| 2026-04-20 03:12 | -32.55682 | -70.82425 | 15897 ft | 340 kts | 182° |
| 2026-04-20 03:13 | -32.58042 | -70.82339 | 15539 ft | 345 kts | 182° |
| 2026-04-20 03:13 | -32.60540 | -70.82254 | 15154 ft | 369 kts | 182° |
| 2026-04-20 03:13 | -32.63121 | -70.82162 | 14749 ft | 372 kts | 182° |
| 2026-04-20 03:13 | -32.65697 | -70.82062 | 14353 ft | 368 kts | 181° |
| 2026-04-20 03:14 | -32.68258 | -70.81964 | 13966 ft | 368 kts | 181° |
| 2026-04-20 03:14 | -32.70810 | -70.81869 | 13549 ft | 365 kts | 181° |
| 2026-04-20 03:14 | -32.73341 | -70.81778 | 13416 ft | 365 kts | 181° |
| 2026-04-20 03:14 | -32.75876 | -70.81688 | 13244 ft | 364 kts | 181° |
| 2026-04-20 03:15 | -32.78416 | -70.81598 | 12628 ft | 367 kts | 181° |
| 2026-04-20 03:15 | -32.80914 | -70.81509 | 12393 ft | 359 kts | 180° |
| 2026-04-20 03:15 | -32.83339 | -70.81418 | 12267 ft | 337 kts | 181° |
| 2026-04-20 03:15 | -32.85611 | -70.81331 | 12047 ft | 319 kts | 181° |
| 2026-04-20 03:16 | -32.87805 | -70.81252 | 11568 ft | 313 kts | 181° |
| 2026-04-20 03:16 | -32.89967 | -70.81178 | 11026 ft | 309 kts | 181° |
| 2026-04-20 03:16 | -32.92109 | -70.81149 | 10482 ft | 305 kts | 188° |
| 2026-04-20 03:16 | -32.94192 | -70.81451 | 9930 ft | 300 kts | 191° |
| 2026-04-20 03:17 | -32.96254 | -70.81769 | 9331 ft | 297 kts | 189° |
| 2026-04-20 03:17 | -32.98291 | -70.82075 | 8783 ft | 292 kts | 189° |
| 2026-04-20 03:17 | -33.00282 | -70.82346 | 8252 ft | 286 kts | 184° |
| 2026-04-20 03:17 | -33.02276 | -70.82289 | 7854 ft | 284 kts | 177° |
| 2026-04-20 03:18 | -33.04205 | -70.82140 | 7546 ft | 280 kts | 177° |
| 2026-04-20 03:18 | -33.06126 | -70.82026 | 7111 ft | 274 kts | 178° |
| 2026-04-20 03:18 | -33.08014 | -70.81929 | 6558 ft | 269 kts | 177° |
| 2026-04-20 03:18 | -33.09866 | -70.81832 | 6015 ft | 263 kts | 177° |
| 2026-04-20 03:19 | -33.11680 | -70.81736 | 5524 ft | 257 kts | 177° |
| 2026-04-20 03:19 | -33.13481 | -70.81639 | 5323 ft | 254 kts | 177° |
| 2026-04-20 03:19 | -33.15165 | -70.81550 | 5251 ft | 231 kts | 177° |
| 2026-04-20 03:19 | -33.16721 | -70.81467 | 5162 ft | 218 kts | 177° |
| 2026-04-20 03:20 | -33.18191 | -70.81388 | 5068 ft | 207 kts | 177° |
| 2026-04-20 03:20 | -33.19625 | -70.81312 | 4968 ft | 203 kts | 177° |
| 2026-04-20 03:20 | -33.21011 | -70.81238 | 4723 ft | 197 kts | 177° |
| 2026-04-20 03:20 | -33.22364 | -70.81165 | 4467 ft | 191 kts | 177° |
| 2026-04-20 03:21 | -33.23654 | -70.81096 | 4222 ft | 180 kts | 178° |
| 2026-04-20 03:21 | -33.24867 | -70.81032 | 3988 ft | 168 kts | 178° |
| 2026-04-20 03:21 | -33.25984 | -70.80972 | 3781 ft | 154 kts | 178° |
| 2026-04-20 03:21 | -33.27029 | -70.80916 | 3582 ft | 150 kts | 178° |
| 2026-04-20 03:22 | -33.28056 | -70.80861 | 3402 ft | 144 kts | 178° |
| 2026-04-20 03:22 | -33.29049 | -70.80808 | 3204 ft | 142 kts | 178° |
| 2026-04-20 03:22 | -33.30040 | -70.80755 | 3000 ft | 142 kts | 177° |
| 2026-04-20 03:22 | -33.31031 | -70.80702 | 2798 ft | 142 kts | 177° |
| 2026-04-20 03:23 | -33.32016 | -70.80649 | 2609 ft | 142 kts | 176° |
| 2026-04-20 03:23 | -33.32998 | -70.80597 | 2417 ft | 140 kts | 176° |
| 2026-04-20 03:23 | -33.33972 | -70.80544 | 2225 ft | 140 kts | 175° |
| 2026-04-20 03:23 | -33.34942 | -70.80492 | 2046 ft | 139 kts | 175° |
| 2026-04-20 03:24 | -33.35905 | -70.80440 | 1833 ft | 138 kts | 175° |
| 2026-04-20 03:24 | -33.36863 | -70.80387 | 1689 ft | 136 kts | 175° |
| 2026-04-20 03:24 | -33.37801 | -70.80338 | 1580 ft | 137 kts | 175° |
| 2026-04-20 03:24 | -33.38665 | -70.80292 | 1574 ft | 102 kts | 176° |
| 2026-04-20 03:25 | -33.39193 | -70.80262 | 1573 ft | 49 kts | 171° |
| 2026-04-20 03:25 | -33.39423 | -70.80130 | 1568 ft | 34 kts | 148° |
| 2026-04-20 03:25 | -33.39531 | -70.79994 | 1566 ft | 22 kts | 93° |
| 2026-04-20 03:25 | -33.39527 | -70.79811 | 1565 ft | 23 kts | 89° |
| 2026-04-20 03:26 | -33.39519 | -70.79650 | 1565 ft | 13 kts | 86° |
| 2026-04-20 03:26 | -33.39519 | -70.79624 | 1565 ft | 2 kts | 100° |
| 2026-04-20 03:26 | -33.39533 | -70.79612 | 1565 ft | 4 kts | 152° |
| 2026-04-20 03:26 | -33.39568 | -70.79609 | 1565 ft | 8 kts | 178° |
| 2026-04-20 03:27 | -33.39604 | -70.79608 | 1565 ft | 0 kts | 178° |